sensor_id;sensor_type;location;lat;lon;timestamp;pressure;altitude;pressure_sealevel;temperature;humidity
28701;BME280;15877;52.344;16.790;2024-03-08T00:02:25;101543.77;;;5.11;61.60
28701;BME280;15877;52.344;16.790;2024-03-08T00:04:57;101540.05;;;5.13;61.53
28701;BME280;15877;52.344;16.790;2024-03-08T00:07:28;101539.40;;;5.16;61.45
28701;BME280;15877;52.344;16.790;2024-03-08T00:10:00;101541.55;;;5.09;61.57
28701;BME280;15877;52.344;16.790;2024-03-08T00:12:32;101537.48;;;5.08;61.70
28701;BME280;15877;52.344;16.790;2024-03-08T00:15:05;101533.44;;;5.07;61.79
28701;BME280;15877;52.344;16.790;2024-03-08T00:17:37;101535.21;;;5.07;61.51
28701;BME280;15877;52.344;16.790;2024-03-08T00:20:11;101535.38;;;5.07;61.48
28701;BME280;15877;52.344;16.790;2024-03-08T00:22:44;101532.91;;;5.06;61.47
28701;BME280;15877;52.344;16.790;2024-03-08T00:25:17;101536.77;;;5.04;61.47
28701;BME280;15877;52.344;16.790;2024-03-08T00:27:49;101536.73;;;5.03;61.46
28701;BME280;15877;52.344;16.790;2024-03-08T00:30:21;101533.10;;;5.03;61.27
28701;BME280;15877;52.344;16.790;2024-03-08T00:32:53;101540.30;;;5.02;61.21
28701;BME280;15877;52.344;16.790;2024-03-08T00:35:25;101534.48;;;5.01;61.17
28701;BME280;15877;52.344;16.790;2024-03-08T00:37:57;101533.83;;;4.99;61.17
28701;BME280;15877;52.344;16.790;2024-03-08T00:40:29;101533.79;;;4.98;61.17
28701;BME280;15877;52.344;16.790;2024-03-08T00:43:00;101530.40;;;4.97;61.14
28701;BME280;15877;52.344;16.790;2024-03-08T00:45:34;101532.88;;;4.96;61.01
28701;BME280;15877;52.344;16.790;2024-03-08T00:48:08;101531.27;;;4.94;61.04
28701;BME280;15877;52.344;16.790;2024-03-08T00:50:40;101533.40;;;4.92;61.13
28701;BME280;15877;52.344;16.790;2024-03-08T00:53:12;101531.15;;;4.90;61.14
28701;BME280;15877;52.344;16.790;2024-03-08T00:55:44;101526.77;;;4.89;61.11
28701;BME280;15877;52.344;16.790;2024-03-08T00:58:16;101531.61;;;4.86;61.23
28701;BME280;15877;52.344;16.790;2024-03-08T01:00:49;101529.23;;;4.86;61.46
28701;BME280;15877;52.344;16.790;2024-03-08T01:03:21;101527.02;;;4.84;61.42
28701;BME280;15877;52.344;16.790;2024-03-08T01:05:53;101524.36;;;4.82;61.71
28701;BME280;15877;52.344;16.790;2024-03-08T01:08:25;101519.17;;;4.82;61.56
28701;BME280;15877;52.344;16.790;2024-03-08T01:10:57;101520.54;;;4.80;61.64
28701;BME280;15877;52.344;16.790;2024-03-08T01:13:29;101521.44;;;4.78;61.48
28701;BME280;15877;52.344;16.790;2024-03-08T01:16:00;101520.37;;;4.76;61.39
28701;BME280;15877;52.344;16.790;2024-03-08T01:18:33;101515.98;;;4.75;61.44
28701;BME280;15877;52.344;16.790;2024-03-08T01:21:05;101517.64;;;4.71;61.41
28701;BME280;15877;52.344;16.790;2024-03-08T01:23:37;101510.95;;;4.70;61.35
28701;BME280;15877;52.344;16.790;2024-03-08T01:26:09;101510.32;;;4.68;61.47
28701;BME280;15877;52.344;16.790;2024-03-08T01:28:42;101513.67;;;4.65;61.43
28701;BME280;15877;52.344;16.790;2024-03-08T01:31:13;101508.43;;;4.65;61.38
28701;BME280;15877;52.344;16.790;2024-03-08T01:33:46;101506.58;;;4.64;61.24
28701;BME280;15877;52.344;16.790;2024-03-08T01:36:19;101505.69;;;4.64;60.99
28701;BME280;15877;52.344;16.790;2024-03-08T01:38:50;101505.36;;;4.64;61.01
28701;BME280;15877;52.344;16.790;2024-03-08T01:41:22;101504.61;;;4.63;61.04
28701;BME280;15877;52.344;16.790;2024-03-08T01:43:54;101500.27;;;4.62;60.86
28701;BME280;15877;52.344;16.790;2024-03-08T01:46:26;101499.81;;;4.59;60.67
28701;BME280;15877;52.344;16.790;2024-03-08T01:49:00;101497.75;;;4.58;60.75
28701;BME280;15877;52.344;16.790;2024-03-08T01:51:32;101498.23;;;4.56;60.87
28701;BME280;15877;52.344;16.790;2024-03-08T01:54:05;101497.73;;;4.52;61.03
28701;BME280;15877;52.344;16.790;2024-03-08T01:56:37;101495.29;;;4.53;61.35
28701;BME280;15877;52.344;16.790;2024-03-08T01:59:10;101492.14;;;4.51;61.40
28701;BME280;15877;52.344;16.790;2024-03-08T02:01:42;101493.58;;;4.50;61.51
28701;BME280;15877;52.344;16.790;2024-03-08T02:04:14;101491.57;;;4.48;61.65
28701;BME280;15877;52.344;16.790;2024-03-08T02:06:47;101490.08;;;4.48;61.70
28701;BME280;15877;52.344;16.790;2024-03-08T02:09:19;101490.63;;;4.48;61.66
28701;BME280;15877;52.344;16.790;2024-03-08T02:11:51;101485.46;;;4.48;61.62
28701;BME280;15877;52.344;16.790;2024-03-08T02:14:25;101485.11;;;4.46;61.63
28701;BME280;15877;52.344;16.790;2024-03-08T02:16:59;101476.95;;;4.44;61.37
28701;BME280;15877;52.344;16.790;2024-03-08T02:19:31;101474.10;;;4.43;61.28
28701;BME280;15877;52.344;16.790;2024-03-08T02:22:06;101470.27;;;4.41;61.46
28701;BME280;15877;52.344;16.790;2024-03-08T02:24:39;101468.74;;;4.40;61.30
28701;BME280;15877;52.344;16.790;2024-03-08T02:27:11;101469.08;;;4.41;61.11
28701;BME280;15877;52.344;16.790;2024-03-08T02:29:44;101466.80;;;4.38;61.29
28701;BME280;15877;52.344;16.790;2024-03-08T02:32:16;101466.50;;;4.36;61.42
28701;BME280;15877;52.344;16.790;2024-03-08T02:34:48;101464.73;;;4.37;61.49
28701;BME280;15877;52.344;16.790;2024-03-08T02:37:20;101462.84;;;4.34;61.48
28701;BME280;15877;52.344;16.790;2024-03-08T02:39:52;101459.23;;;4.32;61.61
28701;BME280;15877;52.344;16.790;2024-03-08T02:42:24;101454.85;;;4.31;61.48
28701;BME280;15877;52.344;16.790;2024-03-08T02:44:56;101458.21;;;4.31;61.52
28701;BME280;15877;52.344;16.790;2024-03-08T02:47:28;101458.48;;;4.30;61.45
28701;BME280;15877;52.344;16.790;2024-03-08T02:50:02;101458.70;;;4.27;61.38
28701;BME280;15877;52.344;16.790;2024-03-08T02:52:34;101455.20;;;4.27;61.35
28701;BME280;15877;52.344;16.790;2024-03-08T02:55:07;101454.64;;;4.27;61.25
28701;BME280;15877;52.344;16.790;2024-03-08T02:57:43;101454.17;;;4.25;61.50
28701;BME280;15877;52.344;16.790;2024-03-08T03:00:18;101452.48;;;4.24;61.48
28701;BME280;15877;52.344;16.790;2024-03-08T03:02:51;101451.74;;;4.22;61.49
28701;BME280;15877;52.344;16.790;2024-03-08T03:05:25;101453.46;;;4.20;61.60
28701;BME280;15877;52.344;16.790;2024-03-08T03:07:57;101448.77;;;4.19;61.63
28701;BME280;15877;52.344;16.790;2024-03-08T03:10:30;101449.81;;;4.19;61.53
28701;BME280;15877;52.344;16.790;2024-03-08T03:13:01;101446.77;;;4.16;61.60
28701;BME280;15877;52.344;16.790;2024-03-08T03:15:35;101442.08;;;4.13;61.33
28701;BME280;15877;52.344;16.790;2024-03-08T03:18:07;101442.46;;;4.13;61.32
28701;BME280;15877;52.344;16.790;2024-03-08T03:20:42;101449.05;;;4.10;61.18
28701;BME280;15877;52.344;16.790;2024-03-08T03:23:15;101451.16;;;4.09;61.29
28701;BME280;15877;52.344;16.790;2024-03-08T03:25:51;101452.17;;;4.07;61.29
28701;BME280;15877;52.344;16.790;2024-03-08T03:28:23;101450.41;;;4.06;60.99
28701;BME280;15877;52.344;16.790;2024-03-08T03:30:55;101453.48;;;4.05;60.96
28701;BME280;15877;52.344;16.790;2024-03-08T03:33:29;101449.75;;;4.03;60.93
28701;BME280;15877;52.344;16.790;2024-03-08T03:36:01;101447.41;;;4.01;60.95
28701;BME280;15877;52.344;16.790;2024-03-08T03:38:33;101449.10;;;3.98;61.21
28701;BME280;15877;52.344;16.790;2024-03-08T03:41:05;101451.16;;;3.97;61.14
28701;BME280;15877;52.344;16.790;2024-03-08T03:43:42;101448.25;;;3.96;61.46
28701;BME280;15877;52.344;16.790;2024-03-08T03:46:13;101450.98;;;3.94;61.58
28701;BME280;15877;52.344;16.790;2024-03-08T03:48:46;101446.05;;;3.93;61.89
28701;BME280;15877;52.344;16.790;2024-03-08T03:51:18;101445.92;;;3.94;61.98
28701;BME280;15877;52.344;16.790;2024-03-08T03:53:50;101445.00;;;3.93;62.24
28701;BME280;15877;52.344;16.790;2024-03-08T03:56:27;101444.24;;;3.92;62.31
28701;BME280;15877;52.344;16.790;2024-03-08T03:58:59;101444.20;;;3.92;62.58
28701;BME280;15877;52.344;16.790;2024-03-08T04:01:31;101444.42;;;3.91;62.70
28701;BME280;15877;52.344;16.790;2024-03-08T04:04:06;101441.14;;;3.90;62.57
28701;BME280;15877;52.344;16.790;2024-03-08T04:06:38;101435.46;;;3.92;62.53
28701;BME280;15877;52.344;16.790;2024-03-08T04:09:10;101435.05;;;3.93;62.42
28701;BME280;15877;52.344;16.790;2024-03-08T04:11:41;101434.29;;;3.92;62.72
28701;BME280;15877;52.344;16.790;2024-03-08T04:14:14;101438.70;;;3.91;62.66
28701;BME280;15877;52.344;16.790;2024-03-08T04:16:46;101440.48;;;3.90;62.77
28701;BME280;15877;52.344;16.790;2024-03-08T04:19:19;101422.14;;;3.81;62.80
28701;BME280;15877;52.344;16.790;2024-03-08T04:21:50;101437.29;;;3.90;62.60
28701;BME280;15877;52.344;16.790;2024-03-08T04:24:22;101435.97;;;3.90;62.64
28701;BME280;15877;52.344;16.790;2024-03-08T04:26:54;101436.36;;;3.89;62.66
28701;BME280;15877;52.344;16.790;2024-03-08T04:29:26;101431.07;;;3.90;62.47
28701;BME280;15877;52.344;16.790;2024-03-08T04:31:57;101430.30;;;3.86;62.44
28701;BME280;15877;52.344;16.790;2024-03-08T04:34:29;101427.92;;;3.87;62.37
28701;BME280;15877;52.344;16.790;2024-03-08T04:37:02;101428.89;;;3.84;62.34
28701;BME280;15877;52.344;16.790;2024-03-08T04:39:35;101429.42;;;3.83;62.36
28701;BME280;15877;52.344;16.790;2024-03-08T04:42:08;101428.39;;;3.82;62.53
28701;BME280;15877;52.344;16.790;2024-03-08T04:44:41;101423.44;;;3.82;62.33
28701;BME280;15877;52.344;16.790;2024-03-08T04:47:13;101428.60;;;3.81;62.30
28701;BME280;15877;52.344;16.790;2024-03-08T04:49:45;101431.13;;;3.81;62.19
28701;BME280;15877;52.344;16.790;2024-03-08T04:52:17;101427.67;;;3.80;62.22
28701;BME280;15877;52.344;16.790;2024-03-08T04:54:49;101428.62;;;3.76;62.12
28701;BME280;15877;52.344;16.790;2024-03-08T04:57:20;101423.51;;;3.77;62.10
28701;BME280;15877;52.344;16.790;2024-03-08T04:59:52;101421.09;;;3.76;62.30
28701;BME280;15877;52.344;16.790;2024-03-08T05:02:24;101422.63;;;3.76;62.21
28701;BME280;15877;52.344;16.790;2024-03-08T05:04:56;101426.17;;;3.74;62.05
28701;BME280;15877;52.344;16.790;2024-03-08T05:07:28;101426.08;;;3.73;62.12
28701;BME280;15877;52.344;16.790;2024-03-08T05:10:00;101427.61;;;3.73;62.06
28701;BME280;15877;52.344;16.790;2024-03-08T05:12:32;101434.46;;;3.71;62.22
28701;BME280;15877;52.344;16.790;2024-03-08T05:15:05;101434.78;;;3.71;62.19
28701;BME280;15877;52.344;16.790;2024-03-08T05:17:43;101432.71;;;3.70;62.16
28701;BME280;15877;52.344;16.790;2024-03-08T05:20:15;101433.10;;;3.69;62.17
28701;BME280;15877;52.344;16.790;2024-03-08T05:22:48;101429.95;;;3.67;62.28
28701;BME280;15877;52.344;16.790;2024-03-08T05:25:19;101431.60;;;3.66;62.19
28701;BME280;15877;52.344;16.790;2024-03-08T05:27:51;101429.90;;;3.66;62.35
28701;BME280;15877;52.344;16.790;2024-03-08T05:30:23;101434.08;;;3.66;62.28
28701;BME280;15877;52.344;16.790;2024-03-08T05:32:55;101429.48;;;3.65;62.40
28701;BME280;15877;52.344;16.790;2024-03-08T05:35:27;101433.50;;;3.64;62.68
28701;BME280;15877;52.344;16.790;2024-03-08T05:37:59;101434.40;;;3.66;62.38
28701;BME280;15877;52.344;16.790;2024-03-08T05:40:32;101438.67;;;3.63;62.48
28701;BME280;15877;52.344;16.790;2024-03-08T05:43:04;101437.25;;;3.63;62.70
28701;BME280;15877;52.344;16.790;2024-03-08T05:45:36;101432.50;;;3.61;62.93
28701;BME280;15877;52.344;16.790;2024-03-08T05:48:09;101430.22;;;3.63;63.00
28701;BME280;15877;52.344;16.790;2024-03-08T05:50:44;101428.88;;;3.64;62.94
28701;BME280;15877;52.344;16.790;2024-03-08T05:53:16;101427.56;;;3.61;63.81
28701;BME280;15877;52.344;16.790;2024-03-08T05:55:48;101433.40;;;3.63;64.29
28701;BME280;15877;52.344;16.790;2024-03-08T05:58:20;101432.09;;;3.62;64.99
28701;BME280;15877;52.344;16.790;2024-03-08T06:00:52;101430.15;;;3.67;65.11
28701;BME280;15877;52.344;16.790;2024-03-08T06:03:24;101429.77;;;3.68;65.28
28701;BME280;15877;52.344;16.790;2024-03-08T06:05:57;101432.88;;;3.74;65.38
28701;BME280;15877;52.344;16.790;2024-03-08T06:08:32;101433.44;;;3.78;65.42
28701;BME280;15877;52.344;16.790;2024-03-08T06:11:04;101436.24;;;3.82;65.45
28701;BME280;15877;52.344;16.790;2024-03-08T06:13:37;101437.35;;;3.82;65.94
28701;BME280;15877;52.344;16.790;2024-03-08T06:16:09;101438.05;;;3.87;65.83
28701;BME280;15877;52.344;16.790;2024-03-08T06:18:41;101436.48;;;3.93;65.65
28701;BME280;15877;52.344;16.790;2024-03-08T06:21:13;101437.34;;;3.95;65.75
28701;BME280;15877;52.344;16.790;2024-03-08T06:23:46;101435.31;;;3.97;65.89
28701;BME280;15877;52.344;16.790;2024-03-08T06:26:18;101442.80;;;4.01;65.76
28701;BME280;15877;52.344;16.790;2024-03-08T06:28:50;101440.54;;;4.02;65.89
28701;BME280;15877;52.344;16.790;2024-03-08T06:31:22;101441.97;;;4.01;66.35
28701;BME280;15877;52.344;16.790;2024-03-08T06:33:54;101438.73;;;4.05;66.54
28701;BME280;15877;52.344;16.790;2024-03-08T06:36:27;101436.42;;;4.08;66.60
28701;BME280;15877;52.344;16.790;2024-03-08T06:38:59;101436.18;;;4.11;66.67
28701;BME280;15877;52.344;16.790;2024-03-08T06:41:31;101438.07;;;4.17;66.68
28701;BME280;15877;52.344;16.790;2024-03-08T06:44:07;101435.13;;;4.15;67.04
28701;BME280;15877;52.344;16.790;2024-03-08T06:46:40;101433.65;;;4.18;67.24
28701;BME280;15877;52.344;16.790;2024-03-08T06:49:13;101435.13;;;4.22;67.12
28701;BME280;15877;52.344;16.790;2024-03-08T06:51:45;101434.32;;;4.25;67.40
28701;BME280;15877;52.344;16.790;2024-03-08T06:54:17;101432.38;;;4.33;67.19
28701;BME280;15877;52.344;16.790;2024-03-08T06:56:49;101435.30;;;4.39;67.14
28701;BME280;15877;52.344;16.790;2024-03-08T06:59:21;101437.74;;;4.41;66.89
28701;BME280;15877;52.344;16.790;2024-03-08T07:01:53;101434.89;;;4.45;67.06
28701;BME280;15877;52.344;16.790;2024-03-08T07:04:25;101434.45;;;4.48;66.97
28701;BME280;15877;52.344;16.790;2024-03-08T07:07:00;101428.90;;;4.51;67.06
28701;BME280;15877;52.344;16.790;2024-03-08T07:09:33;101429.39;;;4.55;67.15
28701;BME280;15877;52.344;16.790;2024-03-08T07:12:05;101433.73;;;4.58;67.34
28701;BME280;15877;52.344;16.790;2024-03-08T07:14:38;101430.27;;;4.62;67.40
28701;BME280;15877;52.344;16.790;2024-03-08T07:17:11;101433.80;;;4.64;67.70
28701;BME280;15877;52.344;16.790;2024-03-08T07:19:43;101433.33;;;4.66;67.77
28701;BME280;15877;52.344;16.790;2024-03-08T07:22:15;101432.13;;;4.70;67.70
28701;BME280;15877;52.344;16.790;2024-03-08T07:24:47;101431.23;;;4.72;68.02
28701;BME280;15877;52.344;16.790;2024-03-08T07:27:35;101433.73;;;4.75;68.11
28701;BME280;15877;52.344;16.790;2024-03-08T07:30:09;101437.55;;;4.80;67.98
28701;BME280;15877;52.344;16.790;2024-03-08T07:32:41;101435.81;;;4.85;68.01
28701;BME280;15877;52.344;16.790;2024-03-08T07:35:14;101433.44;;;4.89;68.13
28701;BME280;15877;52.344;16.790;2024-03-08T07:37:48;101432.69;;;4.90;68.25
28701;BME280;15877;52.344;16.790;2024-03-08T07:40:20;101429.94;;;4.96;68.18
28701;BME280;15877;52.344;16.790;2024-03-08T07:42:52;101428.42;;;5.01;68.59
28701;BME280;15877;52.344;16.790;2024-03-08T07:45:24;101426.42;;;5.09;68.44
28701;BME280;15877;52.344;16.790;2024-03-08T07:47:56;101421.70;;;5.14;68.58
28701;BME280;15877;52.344;16.790;2024-03-08T07:50:28;101424.27;;;5.18;68.25
28701;BME280;15877;52.344;16.790;2024-03-08T07:53:00;101418.07;;;5.23;68.23
28701;BME280;15877;52.344;16.790;2024-03-08T07:55:33;101418.48;;;5.29;68.31
28701;BME280;15877;52.344;16.790;2024-03-08T07:58:06;101419.95;;;5.39;67.92
28701;BME280;15877;52.344;16.790;2024-03-08T08:00:40;101419.09;;;5.40;68.46
28701;BME280;15877;52.344;16.790;2024-03-08T08:03:13;101422.39;;;5.47;68.27
28701;BME280;15877;52.344;16.790;2024-03-08T08:05:46;101423.61;;;5.51;68.04
28701;BME280;15877;52.344;16.790;2024-03-08T08:08:19;101426.55;;;5.56;68.02
28701;BME280;15877;52.344;16.790;2024-03-08T08:10:51;101423.26;;;5.63;67.48
28701;BME280;15877;52.344;16.790;2024-03-08T08:13:23;101423.31;;;5.66;67.23
28701;BME280;15877;52.344;16.790;2024-03-08T08:15:55;101421.35;;;5.75;67.30
28701;BME280;15877;52.344;16.790;2024-03-08T08:18:27;101426.73;;;5.76;67.10
28701;BME280;15877;52.344;16.790;2024-03-08T08:21:00;101425.61;;;5.86;67.03
28701;BME280;15877;52.344;16.790;2024-03-08T08:23:32;101423.45;;;5.89;67.53
28701;BME280;15877;52.344;16.790;2024-03-08T08:26:04;101422.61;;;6.00;67.06
28701;BME280;15877;52.344;16.790;2024-03-08T08:28:38;101422.27;;;6.12;66.59
28701;BME280;15877;52.344;16.790;2024-03-08T08:31:11;101418.90;;;6.19;66.48
28701;BME280;15877;52.344;16.790;2024-03-08T08:33:43;101420.63;;;6.28;66.63
28701;BME280;15877;52.344;16.790;2024-03-08T08:36:18;101422.31;;;6.34;66.56
28701;BME280;15877;52.344;16.790;2024-03-08T08:38:50;101421.96;;;6.42;66.11
28701;BME280;15877;52.344;16.790;2024-03-08T08:41:24;101419.34;;;6.47;66.17
28701;BME280;15877;52.344;16.790;2024-03-08T08:43:57;101418.89;;;6.57;65.85
28701;BME280;15877;52.344;16.790;2024-03-08T08:46:45;101415.56;;;6.62;65.90
28701;BME280;15877;52.344;16.790;2024-03-08T08:49:17;101402.70;;;6.59;65.82
28701;BME280;15877;52.344;16.790;2024-03-08T08:51:51;101415.11;;;6.82;65.17
28701;BME280;15877;52.344;16.790;2024-03-08T08:54:28;101412.23;;;6.93;64.64
28701;BME280;15877;52.344;16.790;2024-03-08T08:57:00;101411.42;;;6.94;64.14
28701;BME280;15877;52.344;16.790;2024-03-08T08:59:38;101407.23;;;7.02;63.90
28701;BME280;15877;52.344;16.790;2024-03-08T09:02:10;101408.24;;;7.01;62.69
28701;BME280;15877;52.344;16.790;2024-03-08T09:04:47;101399.76;;;6.96;63.05
28701;BME280;15877;52.344;16.790;2024-03-08T09:07:19;101396.67;;;7.07;62.74
28701;BME280;15877;52.344;16.790;2024-03-08T09:09:51;101396.73;;;7.12;62.21
28701;BME280;15877;52.344;16.790;2024-03-08T09:12:27;101391.29;;;7.33;62.13
28701;BME280;15877;52.344;16.790;2024-03-08T09:19:06;101382.11;;;7.49;60.72
28701;BME280;15877;52.344;16.790;2024-03-08T09:21:38;101383.88;;;7.49;59.94
28701;BME280;15877;52.344;16.790;2024-03-08T09:24:10;101380.41;;;7.65;60.03
28701;BME280;15877;52.344;16.790;2024-03-08T09:26:43;101378.61;;;7.64;59.52
28701;BME280;15877;52.344;16.790;2024-03-08T09:29:14;101371.13;;;7.63;59.53
28701;BME280;15877;52.344;16.790;2024-03-08T09:31:46;101370.36;;;7.81;59.13
28701;BME280;15877;52.344;16.790;2024-03-08T09:34:19;101372.35;;;7.85;58.21
28701;BME280;15877;52.344;16.790;2024-03-08T09:36:58;101364.39;;;7.98;58.35
28701;BME280;15877;52.344;16.790;2024-03-08T09:39:30;101365.15;;;7.94;57.62
28701;BME280;15877;52.344;16.790;2024-03-08T09:42:05;101364.14;;;7.98;55.88
28701;BME280;15877;52.344;16.790;2024-03-08T09:44:37;101362.15;;;8.06;55.92
28701;BME280;15877;52.344;16.790;2024-03-08T09:47:10;101360.45;;;8.27;55.92
28701;BME280;15877;52.344;16.790;2024-03-08T09:49:44;101358.48;;;8.39;56.10
28701;BME280;15877;52.344;16.790;2024-03-08T09:52:16;101356.67;;;8.50;55.74
28701;BME280;15877;52.344;16.790;2024-03-08T09:54:50;101355.01;;;8.64;55.30
28701;BME280;15877;52.344;16.790;2024-03-08T09:57:22;101354.21;;;8.73;53.92
28701;BME280;15877;52.344;16.790;2024-03-08T09:59:55;101348.75;;;8.69;53.72
28701;BME280;15877;52.344;16.790;2024-03-08T10:02:27;101343.77;;;8.87;53.25
28701;BME280;15877;52.344;16.790;2024-03-08T10:04:59;101344.17;;;8.82;52.82
28701;BME280;15877;52.344;16.790;2024-03-08T10:07:34;101341.17;;;8.83;52.45
28701;BME280;15877;52.344;16.790;2024-03-08T10:10:07;101339.53;;;8.99;52.94
28701;BME280;15877;52.344;16.790;2024-03-08T10:12:43;101337.27;;;9.17;52.50
28701;BME280;15877;52.344;16.790;2024-03-08T10:15:16;101331.81;;;9.17;52.34
28701;BME280;15877;52.344;16.790;2024-03-08T10:17:48;101327.33;;;9.19;53.03
28701;BME280;15877;52.344;16.790;2024-03-08T10:20:20;101329.57;;;9.27;52.82
28701;BME280;15877;52.344;16.790;2024-03-08T10:22:55;101332.21;;;9.40;52.00
28701;BME280;15877;52.344;16.790;2024-03-08T10:25:39;101328.48;;;9.47;52.19
28701;BME280;15877;52.344;16.790;2024-03-08T10:28:13;101326.49;;;9.64;51.66
28701;BME280;15877;52.344;16.790;2024-03-08T10:30:49;101330.12;;;9.53;51.17
28701;BME280;15877;52.344;16.790;2024-03-08T10:34:35;101327.75;;;9.65;50.92
28701;BME280;15877;52.344;16.790;2024-03-08T10:37:10;101329.60;;;9.91;50.55
28701;BME280;15877;52.344;16.790;2024-03-08T10:39:52;101327.95;;;9.88;50.66
28701;BME280;15877;52.344;16.790;2024-03-08T10:42:27;101325.70;;;9.98;50.49
28701;BME280;15877;52.344;16.790;2024-03-08T10:45:12;101322.42;;;10.12;49.55
28701;BME280;15877;52.344;16.790;2024-03-08T10:47:52;101320.22;;;10.21;49.37
28701;BME280;15877;52.344;16.790;2024-03-08T10:50:27;101311.77;;;10.37;49.75
28701;BME280;15877;52.344;16.790;2024-03-08T10:53:00;101312.17;;;10.52;49.92
28701;BME280;15877;52.344;16.790;2024-03-08T10:55:34;101313.10;;;10.61;49.22
28701;BME280;15877;52.344;16.790;2024-03-08T10:58:08;101312.52;;;10.66;49.41
28701;BME280;15877;52.344;16.790;2024-03-08T11:00:40;101304.51;;;10.75;49.05
28701;BME280;15877;52.344;16.790;2024-03-08T11:03:44;101305.20;;;10.86;49.16
28701;BME280;15877;52.344;16.790;2024-03-08T11:06:22;101308.91;;;10.93;48.15
28701;BME280;15877;52.344;16.790;2024-03-08T11:08:55;101303.48;;;11.03;48.79
28701;BME280;15877;52.344;16.790;2024-03-08T11:11:31;101304.58;;;11.05;47.95
28701;BME280;15877;52.344;16.790;2024-03-08T11:14:05;101298.70;;;11.17;46.91
28701;BME280;15877;52.344;16.790;2024-03-08T11:16:41;101295.61;;;11.32;46.83
28701;BME280;15877;52.344;16.790;2024-03-08T11:19:28;101292.97;;;11.29;46.01
28701;BME280;15877;52.344;16.790;2024-03-08T11:22:03;101293.34;;;11.28;46.56
28701;BME280;15877;52.344;16.790;2024-03-08T11:24:41;101285.88;;;11.43;45.95
28701;BME280;15877;52.344;16.790;2024-03-08T11:27:14;101288.34;;;11.36;45.52
28701;BME280;15877;52.344;16.790;2024-03-08T11:29:46;101287.90;;;11.39;45.03
28701;BME280;15877;52.344;16.790;2024-03-08T11:32:30;101265.16;;;11.49;45.39
28701;BME280;15877;52.344;16.790;2024-03-08T11:35:07;101276.09;;;11.60;46.04
28701;BME280;15877;52.344;16.790;2024-03-08T11:37:49;101273.45;;;11.71;45.62
28701;BME280;15877;52.344;16.790;2024-03-08T11:40:22;101265.90;;;11.85;44.94
28701;BME280;15877;52.344;16.790;2024-03-08T11:42:54;101263.38;;;11.83;44.69
28701;BME280;15877;52.344;16.790;2024-03-08T11:45:26;101264.28;;;11.84;44.11
28701;BME280;15877;52.344;16.790;2024-03-08T11:48:00;101263.57;;;11.81;44.15
28701;BME280;15877;52.344;16.790;2024-03-08T11:50:33;101262.58;;;11.90;44.48
28701;BME280;15877;52.344;16.790;2024-03-08T11:53:05;101262.88;;;11.79;43.92
28701;BME280;15877;52.344;16.790;2024-03-08T11:55:38;101258.99;;;11.94;43.44
28701;BME280;15877;52.344;16.790;2024-03-08T11:58:13;101250.32;;;12.07;43.32
28701;BME280;15877;52.344;16.790;2024-03-08T12:00:45;101249.48;;;12.13;44.08
28701;BME280;15877;52.344;16.790;2024-03-08T12:03:17;101249.23;;;12.27;44.58
28701;BME280;15877;52.344;16.790;2024-03-08T12:05:58;101246.06;;;12.00;43.48
28701;BME280;15877;52.344;16.790;2024-03-08T12:08:31;101243.48;;;12.07;43.73
28701;BME280;15877;52.344;16.790;2024-03-08T12:11:04;101242.71;;;12.16;44.67
28701;BME280;15877;52.344;16.790;2024-03-08T12:13:37;101239.88;;;12.37;44.63
28701;BME280;15877;52.344;16.790;2024-03-08T12:16:10;101237.33;;;12.34;44.26
28701;BME280;15877;52.344;16.790;2024-03-08T12:18:42;101239.31;;;12.40;43.91
28701;BME280;15877;52.344;16.790;2024-03-08T12:21:14;101237.25;;;12.25;42.91
28701;BME280;15877;52.344;16.790;2024-03-08T12:24:03;101236.04;;;12.36;43.03
28701;BME280;15877;52.344;16.790;2024-03-08T12:26:37;101229.98;;;12.37;44.37
28701;BME280;15877;52.344;16.790;2024-03-08T12:29:17;101225.91;;;12.47;43.61
28701;BME280;15877;52.344;16.790;2024-03-08T12:31:52;101225.36;;;12.48;42.66
28701;BME280;15877;52.344;16.790;2024-03-08T12:34:25;101217.44;;;12.46;43.19
28701;BME280;15877;52.344;16.790;2024-03-08T12:36:59;101215.02;;;12.57;43.47
28701;BME280;15877;52.344;16.790;2024-03-08T12:39:31;101212.95;;;12.64;43.63
28701;BME280;15877;52.344;16.790;2024-03-08T12:42:05;101210.05;;;12.59;42.59
28701;BME280;15877;52.344;16.790;2024-03-08T12:44:37;101194.73;;;12.49;41.88
28701;BME280;15877;52.344;16.790;2024-03-08T12:47:14;101206.70;;;12.65;42.24
28701;BME280;15877;52.344;16.790;2024-03-08T12:49:46;101201.98;;;12.68;41.92
28701;BME280;15877;52.344;16.790;2024-03-08T12:52:19;101198.75;;;12.66;42.66
28701;BME280;15877;52.344;16.790;2024-03-08T12:54:51;101195.11;;;12.66;43.39
28701;BME280;15877;52.344;16.790;2024-03-08T12:57:23;101191.84;;;12.70;44.19
28701;BME280;15877;52.344;16.790;2024-03-08T12:59:57;101176.14;;;12.69;43.87
28701;BME280;15877;52.344;16.790;2024-03-08T13:02:30;101188.75;;;12.70;42.19
28701;BME280;15877;52.344;16.790;2024-03-08T13:05:02;101183.81;;;12.67;41.97
28701;BME280;15877;52.344;16.790;2024-03-08T13:07:35;101181.03;;;12.64;41.89
28701;BME280;15877;52.344;16.790;2024-03-08T13:10:09;101181.86;;;12.75;41.69
28701;BME280;15877;52.344;16.790;2024-03-08T13:12:45;101174.67;;;12.78;41.39
28701;BME280;15877;52.344;16.790;2024-03-08T13:15:19;101172.06;;;12.72;41.49
28701;BME280;15877;52.344;16.790;2024-03-08T13:17:52;101165.60;;;12.68;41.54
28701;BME280;15877;52.344;16.790;2024-03-08T13:20:23;101168.49;;;12.72;41.87
28701;BME280;15877;52.344;16.790;2024-03-08T13:23:10;101163.41;;;12.66;41.47
28701;BME280;15877;52.344;16.790;2024-03-08T13:25:43;101162.74;;;12.62;41.29